Time;durP1;ratioP1;P1;durP2;ratioP2;P2;SDS_P1;SDS_P2;PMS_P1;PMS_P2;Temp;Humidity;BMP_temperature;BMP_pressure;BME280_temperature;BME280_humidity;BME280_pressure;Samples;Min_cycle;Max_cycle;Signal;HPM_P1;HPM_P2
2023/10/13 00:00:36;;;;;;;;;6.67;6.67;;;;;25.14;100.00;100768.81;2113297;27;46544;-58
2023/10/13 00:01:37;;;;;;;;;4.33;4.33;;;;;25.14;100.00;100774.25;2112370;27;46451;-56
2023/10/13 00:02:39;;;;;;;;;6.00;6.00;;;;;25.14;100.00;100775.09;2114525;27;46460;-56
2023/10/13 00:03:40;;;;;;;;;5.75;4.75;;;;;25.14;100.00;100776.94;2110177;27;45769;-58
2023/10/13 00:04:42;;;;;;;;;7.33;5.00;;;;;25.14;100.00;100776.94;2113945;27;46492;-58
2023/10/13 00:05:43;;;;;;;;;6.50;6.50;;;;;25.12;100.00;100768.94;2111367;27;46247;-54
2023/10/13 00:06:45;;;;;;;;;10.00;6.50;;;;;25.12;100.00;100768.94;2114536;27;46647;-56
2023/10/13 00:07:45;;;;;;;;;5.25;4.25;;;;;25.13;100.00;100761.66;2112433;27;46750;-56
2023/10/13 00:08:46;;;;;;;;;5.00;5.00;;;;;25.13;100.00;100769.78;2114546;27;46581;-56
2023/10/13 00:09:46;;;;;;;;;7.67;6.00;;;;;25.12;100.00;100765.34;2112229;27;46815;-56
2023/10/13 00:10:47;;;;;;;;;5.00;5.00;;;;;25.12;100.00;100765.34;2113755;27;46396;-58
2023/10/13 00:11:47;;;;;;;;;6.25;6.25;;;;;25.13;100.00;100767.09;2113280;27;46304;-56
2023/10/13 00:12:51;;;;;;;;;7.00;6.33;;;;;25.11;100.00;100767.22;2106103;27;46209;-54
2023/10/13 00:13:54;;;;;;;;;7.75;5.25;;;;;25.09;100.00;100766.47;2105839;27;46646;-56
2023/10/13 00:14:54;;;;;;;;;8.75;7.75;;;;;25.09;100.00;100771.03;2113876;27;46516;-56
2023/10/13 00:15:58;;;;;;;;;6.33;5.00;;;;;25.09;100.00;100771.03;2113711;27;46587;-55
2023/10/13 00:17:15;;;;;;;;;7.50;6.00;;;;;25.09;100.00;100762.91;2115500;27;46452;-57
2023/10/13 00:18:16;;;;;;;;;4.50;4.50;;;;;25.09;100.00;100752.91;2112016;27;46528;-57
2023/10/13 00:19:18;;;;;;;;;5.33;5.00;;;;;25.09;100.00;100758.34;2113284;27;46455;-56
2023/10/13 00:20:38;;;;;;;;;5.25;4.50;;;;;25.11;100.00;100760.91;2112533;27;46764;-58
2023/10/13 00:21:39;;;;;;;;;8.00;6.50;;;;;25.10;100.00;100751.91;2112602;27;47150;-55
2023/10/13 00:22:40;;;;;;;;;4.00;3.00;;;;;25.09;100.00;100749.31;2114093;27;46606;-56
2023/10/13 00:23:53;;;;;;;;;6.00;5.40;;;;;25.11;100.00;100759.06;2112967;27;46472;-55
2023/10/13 00:24:58;;;;;;;;;5.00;5.00;;;;;25.11;100.00;100758.19;2113654;27;46329;-57
2023/10/13 00:26:02;;;;;;;;;6.00;6.00;;;;;25.10;100.00;100754.63;2111400;27;46568;-58
2023/10/13 00:27:04;;;;;;;;;5.75;5.00;;;;;25.09;100.00;100754.75;2112795;27;46835;-58
2023/10/13 00:28:08;;;;;;;;;6.00;6.00;;;;;25.09;100.00;100752.03;2111444;27;46951;-56
2023/10/13 00:29:17;;;;;;;;;6.00;6.00;;;;;25.09;100.00;100757.47;2114230;27;46359;-56
2023/10/13 00:31:18;;;;;;;;;9.67;7.67;;;;;25.06;100.00;100755.00;2113291;27;46139;-56
2023/10/13 00:32:26;;;;;;;;;8.00;7.00;;;;;25.05;100.00;100762.31;2113769;27;46509;-55
2023/10/13 00:33:27;;;;;;;;;7.50;7.50;;;;;25.04;100.00;100757.00;2112628;27;46940;-55
2023/10/13 00:34:37;;;;;;;;;9.00;7.00;;;;;25.03;100.00;100756.13;2114516;27;49195;-56
2023/10/13 00:35:42;;;;;;;;;6.50;6.00;;;;;25.04;100.00;100746.13;2110001;27;46639;-54
2023/10/13 00:36:48;;;;;;;;;5.50;5.25;;;;;25.05;100.00;100754.16;2113261;27;46907;-56
2023/10/13 00:37:49;;;;;;;;;7.50;7.00;;;;;25.06;100.00;100752.28;2112063;27;46864;-56
2023/10/13 00:38:51;;;;;;;;;6.25;6.00;;;;;25.06;100.00;100747.72;2113919;27;46360;-58
2023/10/13 00:39:56;;;;;;;;;7.75;7.25;;;;;25.05;100.00;100751.44;2111898;27;46774;-57
2023/10/13 00:41:03;;;;;;;;;8.75;8.25;;;;;25.07;100.00;100754.88;2113538;27;46677;-55
2023/10/13 00:42:17;;;;;;;;;5.00;4.75;;;;;25.08;100.00;100761.19;2112620;27;46630;-57
2023/10/13 00:44:43;;;;;;;;;8.25;7.00;;;;;25.07;100.00;100756.75;2103444;27;45063;-58
2023/10/13 00:45:54;;;;;;;;;8.25;7.25;;;;;25.07;100.00;100757.59;2112408;27;46536;-58
2023/10/13 00:46:56;;;;;;;;;7.75;6.75;;;;;25.07;100.00;100743.16;2113586;27;46557;-56
2023/10/13 00:47:59;;;;;;;;;7.50;6.50;;;;;25.06;100.00;100744.16;2111757;27;46537;-56
2023/10/13 00:49:06;;;;;;;;;8.50;7.50;;;;;25.06;100.00;100742.31;2113916;27;46977;-56
2023/10/13 00:50:11;;;;;;;;;9.25;8.50;;;;;25.07;100.00;100748.59;2111648;27;46717;-58
2023/10/13 00:52:35;;;;;;;;;8.25;7.75;;;;;25.06;100.00;100742.31;2102052;27;46615;-54
2023/10/13 00:53:39;;;;;;;;;7.75;7.75;;;;;25.05;100.00;100739.72;2112623;27;47260;-57
2023/10/13 00:54:40;;;;;;;;;10.00;10.00;;;;;25.06;100.00;100730.56;2113402;27;46428;-54
2023/10/13 00:55:41;;;;;;;;;7.00;7.00;;;;;25.05;100.00;100735.16;2112615;27;46624;-55
2023/10/13 00:58:03;;;;;;;;;10.00;9.50;;;;;25.03;100.00;100722.66;2085400;28;46455;-57
2023/10/13 00:59:04;;;;;;;;;9.00;9.00;;;;;25.03;100.00;100726.25;2086086;28;46964;-54
2023/10/13 01:00:18;;;;;;;;;9.67;9.67;;;;;25.05;100.00;100726.13;2076699;28;46758;-57
2023/10/13 01:01:22;;;;;;;;;7.75;7.75;;;;;25.02;100.00;100724.50;2080244;28;45802;-55
2023/10/13 01:02:37;;;;;;;;;9.75;9.75;;;;;25.00;100.00;100718.31;2086223;28;46417;-53
2023/10/13 01:03:38;;;;;;;;;10.25;10.25;;;;;24.99;100.00;100722.03;2085475;28;46910;-55
2023/10/13 01:04:38;;;;;;;;;9.00;9.00;;;;;25.00;100.00;100728.31;2086960;28;46450;-57
2023/10/13 01:05:41;;;;;;;;;7.67;7.67;;;;;24.99;100.00;100724.72;2086020;28;46189;-56
2023/10/13 01:06:41;;;;;;;;;8.00;8.00;;;;;24.97;100.00;100720.44;2087709;28;46652;-58
2023/10/13 01:07:41;;;;;;;;;11.67;9.67;;;;;24.96;100.00;100722.28;2085109;28;46570;-58
2023/10/13 01:08:45;;;;;;;;;8.33;8.00;;;;;24.96;100.00;100719.56;2087413;28;46274;-57
2023/10/13 01:09:48;;;;;;;;;6.00;6.00;;;;;24.94;100.00;100716.97;2084752;28;46215;-57
2023/10/13 01:10:49;;;;;;;;;8.25;6.75;;;;;24.92;100.00;100708.09;2087038;28;46856;-58
2023/10/13 01:11:53;;;;;;;;;8.50;7.75;;;;;24.92;100.00;100713.53;2085541;28;46385;-54
2023/10/13 01:12:54;;;;;;;;;8.75;8.00;;;;;24.92;100.00;100715.38;2087676;28;46822;-56
2023/10/13 01:13:56;;;;;;;;;11.33;8.33;;;;;24.91;100.00;100713.66;2078056;28;46649;-55
2023/10/13 01:14:59;;;;;;;;;8.00;6.00;;;;;24.93;100.00;100714.41;2084177;28;46413;-58
2023/10/13 01:16:02;;;;;;;;;10.75;9.00;;;;;24.92;100.00;100709.94;2085690;28;46796;-57
2023/10/13 01:17:04;;;;;;;;;8.25;8.25;;;;;24.93;100.00;100708.97;2083849;28;47141;-57
2023/10/13 01:18:11;;;;;;;;;9.50;8.00;;;;;24.93;100.00;100711.69;2085099;28;46498;-57
2023/10/13 01:19:20;;;;;;;;;7.75;7.25;;;;;24.93;100.00;100703.53;2087555;28;46615;-57
2023/10/13 01:20:24;;;;;;;;;8.50;7.50;;;;;24.91;100.00;100702.81;2086178;28;46670;-55
2023/10/13 01:21:29;;;;;;;;;10.50;8.75;;;;;24.92;100.00;100701.81;2077998;28;46599;-51
2023/10/13 01:22:31;;;;;;;;;8.00;8.00;;;;;24.91;100.00;100697.38;2079358;28;46850;-57
2023/10/13 01:23:37;;;;;;;;;7.50;7.50;;;;;24.92;100.00;100705.38;2086024;28;46333;-57
2023/10/13 01:24:38;;;;;;;;;8.00;8.00;;;;;24.91;100.00;100703.66;2087533;28;46660;-57
2023/10/13 01:25:40;;;;;;;;;10.67;10.67;;;;;24.91;100.00;100703.66;2085873;28;46495;-58
2023/10/13 01:26:42;;;;;;;;;10.50;9.75;;;;;24.91;100.00;100706.38;2080660;28;46609;-58
2023/10/13 01:27:42;;;;;;;;;10.50;10.25;;;;;24.90;100.00;100703.75;2081271;28;46261;-58
2023/10/13 01:28:46;;;;;;;;;10.25;9.25;;;;;24.92;100.00;100707.25;2087434;28;46314;-56
2023/10/13 01:29:48;;;;;;;;;11.25;10.25;;;;;24.92;100.00;100705.38;2085381;28;46559;-56
2023/10/13 01:30:52;;;;;;;;;11.00;10.00;;;;;24.92;100.00;100702.66;2087928;28;45944;-56
2023/10/13 01:31:52;;;;;;;;;7.00;7.00;;;;;24.91;100.00;100695.53;2084673;28;46731;-55
2023/10/13 01:32:53;;;;;;;;;9.67;8.00;;;;;24.91;100.00;100703.66;2087367;28;46291;-56
2023/10/13 01:33:58;;;;;;;;;5.25;5.25;;;;;24.91;100.00;100705.50;2085016;28;46966;-57
2023/10/13 01:35:05;;;;;;;;;9.40;9.40;;;;;24.90;100.00;100699.22;2087006;28;46883;-58
2023/10/13 01:36:12;;;;;;;;;9.00;7.75;;;;;24.89;100.00;100693.88;2101937;27;47109;-55
2023/10/13 01:37:12;;;;;;;;;9.75;8.50;;;;;24.88;100.00;100694.88;2113644;27;46349;-57
2023/10/13 01:38:14;;;;;;;;;12.00;10.00;;;;;24.89;100.00;100691.19;2112037;27;46608;-57
2023/10/13 01:39:16;;;;;;;;;11.25;10.50;;;;;24.88;100.00;100686.75;2113750;27;46521;-55
2023/10/13 01:40:19;;;;;;;;;9.75;8.75;;;;;24.86;100.00;100684.16;2112688;27;47122;-57
2023/10/13 01:41:21;;;;;;;;;10.25;10.00;;;;;24.87;100.00;100683.16;2111506;27;46558;-57
2023/10/13 01:42:21;;;;;;;;;8.50;6.75;;;;;24.88;100.00;100684.03;2112708;27;45639;-58
2023/10/13 01:43:22;;;;;;;;;11.00;11.00;;;;;24.87;100.00;100680.44;2111598;27;46573;-54
2023/10/13 01:44:30;;;;;;;;;8.75;8.00;;;;;24.85;100.00;100684.28;2111967;27;46951;-56
2023/10/13 01:45:30;;;;;;;;;7.75;7.75;;;;;24.83;100.00;100681.69;2111265;27;46159;-57
2023/10/13 01:46:32;;;;;;;;;10.67;8.00;;;;;24.86;100.00;100677.88;2112206;27;46739;-55
2023/10/13 01:47:33;;;;;;;;;8.00;8.00;;;;;24.86;100.00;100681.44;2112054;27;46578;-56
2023/10/13 01:48:38;;;;;;;;;8.00;8.00;;;;;24.86;100.00;100680.59;2112820;27;46224;-59
2023/10/13 01:49:42;;;;;;;;;10.00;8.75;;;;;24.86;100.00;100684.16;2106420;27;46088;-58
2023/10/13 01:50:47;;;;;;;;;9.75;9.00;;;;;24.86;100.00;100678.72;2106457;27;46417;-57
2023/10/13 01:51:48;;;;;;;;;9.00;9.00;;;;;24.85;100.00;100678.84;2112055;27;46682;-56
2023/10/13 01:52:48;;;;;;;;;8.00;7.33;;;;;24.82;100.00;100671.84;2112643;27;46821;-56
2023/10/13 01:53:56;;;;;;;;;6.33;6.33;;;;;24.80;100.00;100673.81;2110559;27;46662;-57
2023/10/13 01:54:57;;;;;;;;;8.25;7.50;;;;;24.78;100.00;100670.38;2112729;27;46821;-55
2023/10/13 01:55:58;;;;;;;;;9.25;8.25;;;;;24.79;100.00;100666.66;2109520;27;46632;-56
2023/10/13 01:56:59;;;;;;;;;10.33;9.00;;;;;24.79;100.00;100666.66;2113304;27;46360;-56
2023/10/13 01:58:00;;;;;;;;;11.00;9.75;;;;;24.81;100.00;100666.53;2110687;27;46197;-57
2023/10/13 01:59:00;;;;;;;;;12.67;10.00;;;;;24.80;100.00;100660.25;2106453;27;46931;-57
2023/10/13 02:00:09;;;;;;;;;8.00;7.00;;;;;24.82;100.00;100662.81;2109122;27;46707;-58
2023/10/13 02:01:10;;;;;;;;;8.00;8.00;;;;;24.81;100.00;100666.53;2111908;27;46628;-57
2023/10/13 02:02:12;;;;;;;;;11.25;10.00;;;;;24.83;100.00;100659.13;2101970;28;46500;-58
2023/10/13 02:03:16;;;;;;;;;8.25;8.25;;;;;24.83;100.00;100657.28;2096954;27;46625;-57
2023/10/13 02:04:21;;;;;;;;;9.25;7.75;;;;;24.81;100.00;100656.53;2102285;27;46594;-55
2023/10/13 02:05:27;;;;;;;;;8.25;7.25;;;;;24.82;100.00;100658.25;2105484;27;46990;-57
2023/10/13 02:06:32;;;;;;;;;7.75;7.75;;;;;24.83;100.00;100656.41;2112123;27;47125;-57
2023/10/13 02:07:34;;;;;;;;;6.00;4.75;;;;;24.83;100.00;100654.56;2112967;27;46629;-56
2023/10/13 02:08:39;;;;;;;;;9.25;8.00;;;;;24.83;100.00;100659.97;2113429;27;45742;-58
2023/10/13 02:09:40;;;;;;;;;11.75;10.00;;;;;24.83;100.00;100661.84;2110996;27;47229;-58
2023/10/13 02:10:43;;;;;;;;;11.33;11.33;;;;;24.79;100.00;100647.66;2112758;27;46393;-58
2023/10/13 02:11:47;;;;;;;;;9.75;9.75;;;;;24.78;100.00;100645.94;2110737;27;46312;-55
2023/10/13 02:12:47;;;;;;;;;8.00;7.50;;;;;24.78;100.00;100650.50;2112639;27;46488;-58
2023/10/13 02:13:53;;;;;;;;;6.67;6.67;;;;;24.78;100.00;100643.22;2093329;28;47235;-58
2023/10/13 02:14:54;;;;;;;;;10.75;9.50;;;;;24.78;100.00;100639.66;2096680;27;46742;-58
2023/10/13 02:15:56;;;;;;;;;10.33;9.33;;;;;24.78;100.00;100636.94;2111842;27;46692;-57
2023/10/13 02:17:12;;;;;;;;;8.00;8.00;;;;;24.77;100.00;100636.03;2112073;27;46569;-57
2023/10/13 02:18:20;;;;;;;;;8.25;7.75;;;;;24.78;100.00;100632.38;2102378;27;45983;-57
2023/10/13 02:19:21;;;;;;;;;6.00;6.00;;;;;24.77;100.00;100632.47;2106567;27;46421;-58
2023/10/13 02:20:25;;;;;;;;;9.50;9.50;;;;;24.73;100.00;100620.16;2112013;27;45513;-56
2023/10/13 02:21:31;;;;;;;;;10.50;9.75;;;;;24.74;100.00;100622.72;2111232;27;46647;-55
2023/10/13 02:22:31;;;;;;;;;9.00;9.00;;;;;24.74;100.00;100619.16;2108477;27;46776;-56
2023/10/13 02:23:32;;;;;;;;;10.00;9.33;;;;;24.74;100.00;100620.03;2112206;27;46386;-56
2023/10/13 02:24:32;;;;;;;;;8.33;6.67;;;;;24.75;100.00;100619.03;2112127;27;46795;-58
2023/10/13 02:25:45;;;;;;;;;9.00;9.00;;;;;24.75;100.00;100608.19;2111844;27;46370;-57
2023/10/13 02:26:46;;;;;;;;;9.50;8.00;;;;;24.74;100.00;100609.16;2113893;27;46946;-55
2023/10/13 02:27:58;;;;;;;;;10.33;10.33;;;;;24.74;100.00;100608.31;2112014;27;46643;-57
2023/10/13 02:29:01;;;;;;;;;12.00;10.50;;;;;24.74;100.00;100602.88;2113034;27;46518;-56
2023/10/13 02:30:01;;;;;;;;;8.25;7.25;;;;;24.73;100.00;100603.88;2109486;27;46688;-59
2023/10/13 02:31:03;;;;;;;;;10.67;10.00;;;;;24.72;100.00;100594.88;2113169;27;46148;-51
2023/10/13 02:32:04;;;;;;;;;7.75;7.75;;;;;24.73;100.00;100595.72;2110744;27;46528;-56
2023/10/13 02:33:06;;;;;;;;;10.75;9.75;;;;;24.72;100.00;100594.88;2113208;27;46581;-58
2023/10/13 02:34:12;;;;;;;;;9.00;9.00;;;;;24.72;100.00;100589.44;2111183;27;46511;-58
2023/10/13 02:35:17;;;;;;;;;11.75;10.25;;;;;24.73;100.00;100588.44;2112731;27;47117;-58
2023/10/13 02:36:22;;;;;;;;;9.50;9.50;;;;;24.73;100.00;100593.00;2102703;27;46891;-57
2023/10/13 02:37:22;;;;;;;;;9.00;8.00;;;;;24.71;100.00;100586.84;2101491;27;46616;-56
2023/10/13 02:39:41;;;;;;;;;11.25;9.75;;;;;24.72;100.00;100588.56;2104641;27;46878;-55
2023/10/13 02:40:41;;;;;;;;;12.25;10.00;;;;;24.70;100.00;100577.00;2109924;27;46925;-57
2023/10/13 02:41:48;;;;;;;;;10.00;8.33;;;;;24.71;100.00;100586.84;2111553;27;46661;-57
2023/10/13 02:42:49;;;;;;;;;10.25;9.75;;;;;24.71;100.00;100581.44;2105071;27;46510;-56
2023/10/13 02:43:49;;;;;;;;;10.33;10.33;;;;;24.73;100.00;100593.00;2093320;28;46914;-57
2023/10/13 02:44:50;;;;;;;;;7.33;7.00;;;;;24.72;100.00;100592.16;2103873;28;46484;-57
2023/10/13 02:45:58;;;;;;;;;8.50;8.25;;;;;24.73;100.00;100584.88;2112019;27;46522;-57
2023/10/13 02:46:58;;;;;;;;;10.50;9.50;;;;;24.70;100.00;100586.00;2113117;27;46632;-57
2023/10/13 02:48:16;;;;;;;;;11.00;11.00;;;;;24.72;100.00;100588.56;2111645;27;46415;-56
2023/10/13 02:49:19;;;;;;;;;11.25;8.00;;;;;24.71;100.00;100592.28;2112610;27;46367;-52
2023/10/13 02:50:24;;;;;;;;;9.50;9.50;;;;;24.70;100.00;100588.72;2111971;27;46472;-57
2023/10/13 02:51:36;;;;;;;;;10.25;9.25;;;;;24.71;100.00;100592.28;2113104;27;46241;-58
2023/10/13 02:52:41;;;;;;;;;10.75;10.50;;;;;24.70;100.00;100593.28;2113004;27;46777;-57
2023/10/13 02:53:46;;;;;;;;;9.50;8.50;;;;;24.72;100.00;100599.44;2111349;27;46932;-56
2023/10/13 02:54:52;;;;;;;;;9.50;8.00;;;;;24.71;100.00;100589.56;2113562;27;45759;-56
2023/10/13 02:55:56;;;;;;;;;10.50;9.00;;;;;24.70;100.00;100586.00;2111951;27;46603;-55
2023/10/13 02:56:59;;;;;;;;;8.50;8.50;;;;;24.72;100.00;100586.72;2113700;27;46825;-57
2023/10/13 02:57:59;;;;;;;;;8.25;7.25;;;;;24.70;100.00;100583.28;2109541;27;46788;-56
2023/10/13 02:59:04;;;;;;;;;12.67;11.33;;;;;24.71;100.00;100584.13;2101218;28;46474;-56
2023/10/13 03:00:12;;;;;;;;;9.75;9.75;;;;;24.70;100.00;100585.13;2102481;27;46743;-52
2023/10/13 03:01:16;;;;;;;;;7.75;7.75;;;;;24.70;100.00;100579.69;2112623;27;46277;-57
2023/10/13 03:02:17;;;;;;;;;14.50;10.25;;;;;24.69;100.00;100588.84;2112021;27;46886;-56
2023/10/13 03:03:19;;;;;;;;;7.33;7.33;;;;;24.68;100.00;100579.84;2112332;27;46472;-56
2023/10/13 03:04:25;;;;;;;;;9.00;7.50;;;;;24.67;100.00;100583.53;2111951;27;49325;-56
2023/10/13 03:05:29;;;;;;;;;11.50;10.00;;;;;24.68;100.00;100585.25;2111611;27;46941;-55
2023/10/13 03:06:32;;;;;;;;;11.25;10.25;;;;;24.67;100.00;100588.97;2109500;27;46959;-54
2023/10/13 03:07:33;;;;;;;;;10.75;9.00;;;;;24.65;100.00;100589.09;2110979;27;46984;-54
2023/10/13 03:08:33;;;;;;;;;11.00;9.00;;;;;24.65;100.00;100574.66;2112705;27;46325;-54
2023/10/13 03:09:37;;;;;;;;;7.00;7.00;;;;;24.64;100.00;100581.91;2111719;27;47150;-56
2023/10/13 03:10:46;;;;;;;;;10.50;9.75;;;;;24.63;100.00;100590.19;2112785;27;46894;-56
2023/10/13 03:11:48;;;;;;;;;11.25;10.25;;;;;24.62;100.00;100583.91;2111915;27;46616;-57
2023/10/13 03:12:48;;;;;;;;;9.75;6.50;;;;;24.62;100.00;100580.31;2094932;28;46308;-57
2023/10/13 03:13:51;;;;;;;;;8.67;8.00;;;;;24.62;100.00;100577.59;2091984;28;46340;-56
2023/10/13 03:14:57;;;;;;;;;9.50;9.50;;;;;24.62;100.00;100577.59;2088406;28;46426;-57
2023/10/13 03:15:57;;;;;;;;;7.75;6.75;;;;;24.63;100.00;100577.47;2090550;28;47289;-56
2023/10/13 03:17:06;;;;;;;;;8.33;7.00;;;;;24.66;100.00;100579.09;2094548;28;46324;-55
2023/10/13 03:18:06;;;;;;;;;11.00;11.00;;;;;24.65;100.00;100570.09;2091945;28;46520;-55
2023/10/13 03:19:09;;;;;;;;;8.00;8.00;;;;;24.65;100.00;100570.09;2095509;28;46841;-56
2023/10/13 03:20:14;;;;;;;;;9.50;8.25;;;;;24.64;100.00;100562.06;2092777;28;46548;-56
2023/10/13 03:21:27;;;;;;;;;10.25;9.00;;;;;24.65;100.00;100566.53;2095048;28;46404;-56
2023/10/13 03:22:31;;;;;;;;;9.50;9.25;;;;;24.65;100.00;100558.38;2095867;28;46231;-54
2023/10/13 03:23:45;;;;;;;;;8.50;8.00;;;;;24.64;100.00;100567.50;2096291;28;46974;-55
2023/10/13 03:24:49;;;;;;;;;13.00;13.00;;;;;24.61;100.00;100555.03;2094154;28;46739;-55
2023/10/13 03:25:49;;;;;;;;;10.50;10.25;;;;;24.60;100.00;100558.75;2093335;28;47025;-56
2023/10/13 03:26:52;;;;;;;;;14.00;12.00;;;;;24.58;100.00;100557.16;2095088;28;46378;-57
2023/10/13 03:28:53;;;;;;;;;8.00;8.00;;;;;24.57;100.00;100550.88;2095081;28;46280;-56
2023/10/13 03:29:54;;;;;;;;;9.25;7.00;;;;;24.57;100.00;100552.72;2092201;28;46585;-55
2023/10/13 03:30:54;;;;;;;;;12.00;10.33;;;;;24.57;100.00;100550.00;2092838;28;45534;-56
2023/10/13 03:32:06;;;;;;;;;9.33;8.67;;;;;24.55;100.00;100547.44;2094932;28;46606;-58
2023/10/13 03:33:11;;;;;;;;;8.75;6.00;;;;;24.55;100.00;100549.28;2096941;28;46614;-57
2023/10/13 03:34:12;;;;;;;;;10.25;9.75;;;;;24.55;100.00;100536.56;2094187;28;46551;-58
2023/10/13 03:35:25;;;;;;;;;9.00;9.00;;;;;24.55;100.00;100539.28;2100228;28;46864;-57
2023/10/13 03:37:45;;;;;;;;;10.25;10.00;;;;;24.54;100.00;100536.72;2091971;28;46861;-57
2023/10/13 03:38:45;;;;;;;;;10.33;9.00;;;;;24.53;100.00;100533.13;2096250;28;46841;-58
2023/10/13 03:39:46;;;;;;;;;12.33;9.00;;;;;24.52;100.00;100531.41;2095227;28;46720;-57
2023/10/13 03:40:56;;;;;;;;;9.00;8.00;;;;;24.53;100.00;100529.56;2096557;28;46343;-57
2023/10/13 03:41:58;;;;;;;;;10.25;9.25;;;;;24.52;100.00;100528.69;2094003;28;46838;-55
2023/10/13 03:43:06;;;;;;;;;9.00;9.00;;;;;24.51;100.00;100524.22;2088291;28;46916;-55
2023/10/13 03:44:17;;;;;;;;;7.75;7.75;;;;;24.49;100.00;100525.34;2087394;27;46584;-53
2023/10/13 03:45:18;;;;;;;;;9.25;8.00;;;;;24.48;100.00;100519.06;2107531;27;46082;-57
2023/10/13 03:46:21;;;;;;;;;10.75;9.25;;;;;24.48;100.00;100518.22;2110862;27;46959;-56
2023/10/13 03:47:32;;;;;;;;;11.50;11.50;;;;;24.48;100.00;100512.78;2103818;28;46631;-57
2023/10/13 03:48:40;;;;;;;;;8.25;7.00;;;;;24.48;100.00;100519.06;2106448;27;47036;-54
2023/10/13 03:49:40;;;;;;;;;9.50;8.75;;;;;24.49;100.00;100520.78;2112620;27;46904;-55
2023/10/13 03:50:48;;;;;;;;;8.67;8.33;;;;;24.47;100.00;100509.22;2104966;28;46312;-56
2023/10/13 03:51:49;;;;;;;;;10.25;8.25;;;;;24.46;100.00;100510.19;2101526;27;46430;-54
2023/10/13 03:52:49;;;;;;;;;11.00;11.00;;;;;24.47;100.00;100511.06;2113231;27;46833;-57
2023/10/13 03:53:52;;;;;;;;;8.00;8.00;;;;;24.46;100.00;100514.75;2112988;27;45873;-56
2023/10/13 03:54:52;;;;;;;;;9.00;8.50;;;;;24.46;100.00;100507.50;2114514;27;46398;-58
2023/10/13 03:56:07;;;;;;;;;11.33;11.33;;;;;24.48;100.00;100510.06;2113068;27;46290;-56
2023/10/13 03:57:11;;;;;;;;;9.25;9.25;;;;;24.48;100.00;100519.06;2110830;27;46864;-58
2023/10/13 03:58:12;;;;;;;;;9.50;9.50;;;;;24.49;100.00;100514.50;2113214;27;46327;-55
2023/10/13 04:00:21;;;;;;;;;8.67;8.00;;;;;24.48;100.00;100512.78;2112029;27;46146;-58
2023/10/13 04:01:31;;;;;;;;;8.50;8.50;;;;;24.49;100.00;100511.78;2086822;28;46563;-57
2023/10/13 04:02:32;;;;;;;;;11.50;10.25;;;;;24.50;100.00;100508.09;2086508;28;46393;-58
2023/10/13 04:03:36;;;;;;;;;9.67;8.67;;;;;24.48;100.00;100501.94;2085433;28;46835;-58
2023/10/13 04:04:48;;;;;;;;;11.50;8.25;;;;;24.49;100.00;100504.50;2083373;28;46354;-56
2023/10/13 04:06:01;;;;;;;;;10.75;7.75;;;;;24.51;100.00;100502.53;2083839;28;47045;-54
2023/10/13 04:12:19;;;;;;;;;10.75;9.00;;;;;24.44;100.00;100492.34;2086218;28;46480;-58
2023/10/13 04:16:14;;;;;;;;;9.25;9.25;;;;;24.50;100.00;100499.94;2085274;28;46326;-59
2023/10/13 04:17:14;;;;;;;;;8.50;8.00;;;;;24.47;100.00;100492.06;2087856;28;46406;-57
2023/10/13 04:18:33;;;;;;;;;8.00;8.00;;;;;24.48;100.00;100491.94;2082433;28;46617;-56
2023/10/13 04:20:12;;;;;;;;;9.75;8.00;;;;;24.49;100.00;100495.50;2086504;28;47050;-56
2023/10/13 04:21:07;;;;;;;;;7.75;6.75;;;;;24.49;100.00;100490.94;2086420;28;46825;-56
2023/10/13 04:22:14;;;;;;;;;7.75;7.75;;;;;24.47;100.00;100484.78;2084335;28;46654;-59
2023/10/13 04:23:19;;;;;;;;;;;;;;;;;;;;;
2023/10/13 04:25:38;;;;;;;;;;;;;;;;;;;;;
2023/10/13 04:26:42;;;;;;;;;11.25;8.75;;;;;24.44;100.00;100481.47;2085912;28;46852;-56
2023/10/13 04:28:06;;;;;;;;;8.75;8.75;;;;;24.44;100.00;100478.78;2086388;28;46996;-57
2023/10/13 04:29:27;;;;;;;;;9.50;8.75;;;;;24.45;100.00;100473.22;2080644;28;45774;-55
2023/10/13 04:30:38;;;;;;;;;11.25;8.75;;;;;24.45;100.00;100472.34;2083130;28;46942;-57
2023/10/13 04:31:57;;;;;;;;;8.75;8.75;;;;;24.43;100.00;100469.78;2082987;28;46117;-57
2023/10/13 04:33:17;;;;;;;;;10.00;9.75;;;;;24.43;100.00;100467.06;2085807;28;46681;-56
2023/10/13 04:34:27;;;;;;;;;10.00;10.00;;;;;24.44;100.00;100465.22;2085975;28;46476;-57
2023/10/13 04:35:35;;;;;;;;;6.00;6.00;;;;;24.42;100.00;100462.63;2086414;28;46953;-57
2023/10/13 04:40:09;;;;;;;;;10.00;10.00;;;;;24.44;100.00;100457.06;2109613;27;46471;-58
2023/10/13 04:41:22;;;;;;;;;8.75;8.75;;;;;24.45;100.00;100467.78;2103913;27;46352;-55
2023/10/13 04:43:55;;;;;;;;;11.75;10.00;;;;;24.45;100.00;100448.81;2112091;27;46723;-57
2023/10/13 04:45:00;;;;;;;;;8.25;8.25;;;;;24.44;100.00;100446.22;2113325;27;46355;-57
2023/10/13 04:46:25;;;;;;;;;11.75;11.50;;;;;24.45;100.00;100447.94;2110841;27;46567;-58
2023/10/13 04:47:21;;;;;;;;;8.00;7.50;;;;;24.43;100.00;100445.34;2110098;27;46690;-56
2023/10/13 04:50:41;;;;;;;;;8.75;8.25;;;;;24.41;100.00;100439.22;2104797;28;46405;-58
2023/10/13 04:51:58;;;;;;;;;10.00;10.00;;;;;24.41;100.00;100444.63;2105857;27;46503;-54
2023/10/13 04:53:02;;;;;;;;;11.00;10.50;;;;;24.38;100.00;100436.72;2113817;27;46386;-56
2023/10/13 04:54:25;;;;;;;;;11.50;10.00;;;;;24.40;100.00;100444.78;2111253;27;46480;-57
2023/10/13 04:57:20;;;;;;;;;8.75;8.75;;;;;24.37;100.00;100435.00;2113434;27;46350;-57
2023/10/13 04:58:14;;;;;;;;;10.25;8.75;;;;;24.38;100.00;100438.56;2110682;27;46588;-57
2023/10/13 05:03:52;;;;;;;;;9.00;7.75;;;;;24.36;100.00;100420.59;2077535;28;47004;-57
2023/10/13 05:49:20;;;;;;;;;11.80;11.80;;;;;24.40;100.00;100396.81;2062155;28;46518;-55
2023/10/13 05:50:13;;;;;;;;;13.20;12.80;;;;;24.36;100.00;100392.59;2063274;28;46775;-57
2023/10/13 06:28:45;;;;;;;;;18.00;15.80;;;;;24.19;100.00;100395.84;2061508;28;46381;-57
2023/10/13 06:29:46;;;;;;;;;18.20;17.20;;;;;24.17;100.00;100395.97;2058693;28;46372;-57
2023/10/13 06:30:58;;;;;;;;;15.50;15.25;;;;;24.19;100.00;100398.56;2062678;28;46643;-56
2023/10/13 06:32:01;;;;;;;;;12.75;12.25;;;;;24.18;100.00;100388.72;2060925;28;46771;-56
2023/10/13 06:33:04;;;;;;;;;15.40;15.20;;;;;24.16;100.00;100388.84;2103131;27;47005;-55
2023/10/13 06:34:04;;;;;;;;;13.25;13.25;;;;;24.15;100.00;100389.84;2110687;27;46230;-57
2023/10/13 06:35:18;;;;;;;;;16.25;16.25;;;;;24.14;100.00;100395.34;2111522;27;46811;-54
2023/10/13 06:36:18;;;;;;;;;12.00;12.00;;;;;24.14;100.00;100392.66;2104580;27;46529;-57
2023/10/13 06:37:32;;;;;;;;;14.00;13.75;;;;;24.14;100.00;100388.13;2084604;28;46399;-56
2023/10/13 06:38:39;;;;;;;;;16.50;13.00;;;;;24.13;100.00;100391.78;2090957;27;46543;-56
2023/10/13 06:39:39;;;;;;;;;13.00;13.00;;;;;24.12;100.00;100390.06;2110942;27;46304;-57
2023/10/13 06:40:48;;;;;;;;;16.50;16.00;;;;;24.13;100.00;100394.50;2112738;27;46189;-55
2023/10/13 06:41:48;;;;;;;;;13.50;12.75;;;;;24.15;100.00;100394.41;2111956;27;46399;-57
2023/10/13 06:42:49;;;;;;;;;13.75;13.75;;;;;24.14;100.00;100400.78;2112864;27;46285;-56
2023/10/13 06:43:59;;;;;;;;;11.25;11.25;;;;;24.13;100.00;100391.78;2112029;27;46617;-58
2023/10/13 06:45:08;;;;;;;;;13.00;13.00;;;;;24.15;100.00;100394.41;2112620;27;45754;-58
2023/10/13 06:46:14;;;;;;;;;15.75;14.75;;;;;24.15;100.00;100392.53;2110565;27;46519;-58
2023/10/13 06:47:14;;;;;;;;;15.00;15.00;;;;;24.15;100.00;100387.13;2113399;27;46640;-57
2023/10/13 06:48:16;;;;;;;;;14.00;13.75;;;;;24.15;100.00;100387.13;2106436;27;46188;-55
2023/10/13 06:49:18;;;;;;;;;11.50;11.50;;;;;24.16;100.00;100387.97;2106304;27;46362;-52
2023/10/13 06:50:24;;;;;;;;;14.20;14.00;;;;;24.16;100.00;100390.69;2112874;27;45652;-56